Time;durP1;ratioP1;P1;durP2;ratioP2;P2;SDS_P1;SDS_P2;PMS_P1;PMS_P2;Temp;Humidity;BMP_temperature;BMP_pressure;BME280_temperature;BME280_humidity;BME280_pressure;Samples;Min_cycle;Max_cycle;Signal;HPM_P1;HPM_P2
2022/09/25 00:01:39;;;;;;;3.22;0.90;;;11.50;99.90;;;;;;5114099;28;20127;-75
2022/09/25 00:04:05;;;;;;;3.80;1.10;;;11.50;99.90;;;;;;5098149;28;20039;-75
2022/09/25 00:06:34;;;;;;;3.15;1.40;;;11.40;99.90;;;;;;5098100;28;20089;-75
2022/09/25 00:09:01;;;;;;;3.42;1.08;;;11.40;99.90;;;;;;5097583;28;20043;-75
2022/09/25 00:11:30;;;;;;;2.38;1.17;;;11.40;99.90;;;;;;5097361;28;20161;-75
2022/09/25 00:13:58;;;;;;;3.20;1.35;;;11.30;99.90;;;;;;5098005;28;20036;-75
2022/09/25 00:16:27;;;;;;;2.75;1.40;;;11.30;99.90;;;;;;5097568;28;20421;-75
2022/09/25 00:21:38;;;;;;;4.93;1.75;;;11.30;99.90;;;;;;5097491;28;20169;-83
2022/09/25 00:24:08;;;;;;;7.30;1.75;;;11.30;99.90;;;;;;5096469;28;20451;-75
2022/09/25 00:26:36;;;;;;;3.67;1.27;;;11.30;99.90;;;;;;5097340;28;20032;-75
2022/09/25 00:29:03;;;;;;;6.25;1.52;;;11.20;99.90;;;;;;5097426;28;20043;-74
2022/09/25 00:31:29;;;;;;;2.58;1.30;;;11.20;99.90;;;;;;5097618;28;20046;-75
2022/09/25 00:34:00;;;;;;;5.53;1.27;;;11.20;99.90;;;;;;5097330;28;20048;-75
2022/09/25 00:36:27;;;;;;;2.38;1.40;;;11.20;99.90;;;;;;5096168;28;20058;-75
2022/09/25 00:38:53;;;;;;;3.65;1.50;;;11.10;99.90;;;;;;5096487;28;20058;-75
2022/09/25 00:41:21;;;;;;;4.95;1.20;;;11.10;99.90;;;;;;5096434;28;20464;-75
2022/09/25 00:43:53;;;;;;;3.00;1.20;;;11.10;99.90;;;;;;5097311;28;20028;-75
2022/09/25 00:46:19;;;;;;;3.55;1.30;;;11.00;99.90;;;;;;5096810;28;20081;-75
2022/09/25 00:48:54;;;;;;;3.35;1.20;;;11.10;99.90;;;;;;5097647;28;20423;-75
2022/09/25 00:51:28;;;;;;;5.97;1.40;;;11.10;99.90;;;;;;5097362;28;20032;-75
2022/09/25 00:53:57;;;;;;;3.55;1.15;;;11.10;99.90;;;;;;5096988;28;20337;-75
2022/09/25 00:56:24;;;;;;;3.38;1.52;;;11.20;99.90;;;;;;5097150;28;20047;-75
2022/09/25 00:58:50;;;;;;;2.95;1.30;;;11.20;99.90;;;;;;5097070;28;20044;-75
2022/09/25 01:01:16;;;;;;;5.05;1.33;;;11.10;99.90;;;;;;5096622;28;20039;-75
2022/09/25 01:03:45;;;;;;;3.20;1.27;;;11.10;99.90;;;;;;5095502;28;20048;-75
2022/09/25 01:06:13;;;;;;;2.70;1.13;;;11.00;99.90;;;;;;5095732;28;20048;-75
2022/09/25 01:08:40;;;;;;;3.00;1.02;;;11.00;99.90;;;;;;5095789;28;20428;-75
2022/09/25 01:11:05;;;;;;;3.33;1.30;;;10.90;99.90;;;;;;5097088;28;20044;-75
2022/09/25 01:13:31;;;;;;;1.98;1.15;;;11.00;99.90;;;;;;5096993;28;20177;-75
2022/09/25 01:16:11;;;;;;;5.85;1.25;;;11.00;99.90;;;;;;5096901;28;20040;-75
2022/09/25 01:18:45;;;;;;;2.63;1.13;;;10.90;99.90;;;;;;5096989;28;20076;-75
2022/09/25 01:21:34;;;;;;;3.05;1.30;;;10.90;99.90;;;;;;5096736;28;20032;-75
2022/09/25 01:24:29;;;;;;;4.60;1.30;;;10.90;99.90;;;;;;5096325;28;20432;-75
2022/09/25 01:27:16;;;;;;;2.15;1.27;;;10.80;99.90;;;;;;5096614;28;20464;-75
2022/09/25 01:30:07;;;;;;;2.70;1.20;;;10.90;99.90;;;;;;5095726;28;20060;-75
2022/09/25 01:32:48;;;;;;;2.75;0.73;;;10.90;99.90;;;;;;5100047;28;20051;-75
2022/09/25 01:35:36;;;;;;;3.88;0.90;;;10.90;99.90;;;;;;5100590;28;20089;-75
2022/09/25 01:38:20;;;;;;;1.55;0.80;;;10.90;99.90;;;;;;5099383;28;20056;-75
2022/09/25 01:40:57;;;;;;;1.63;0.80;;;10.80;99.90;;;;;;5099141;28;20044;-75
2022/09/25 01:43:52;;;;;;;2.45;1.00;;;10.80;99.90;;;;;;5100104;28;20328;-75
2022/09/25 01:46:23;;;;;;;3.00;0.85;;;10.80;99.90;;;;;;5099876;28;20055;-75
2022/09/25 01:49:01;;;;;;;4.68;0.85;;;10.80;99.90;;;;;;5100280;28;20041;-75
2022/09/25 01:51:52;;;;;;;1.70;0.90;;;10.80;99.90;;;;;;5100250;28;20093;-75
2022/09/25 01:54:26;;;;;;;3.38;0.82;;;10.80;99.90;;;;;;5100200;28;20300;-75
2022/09/25 01:57:08;;;;;;;2.70;0.80;;;10.80;99.90;;;;;;5100413;28;20044;-75
2022/09/25 01:59:56;;;;;;;2.33;1.13;;;10.80;99.90;;;;;;5100619;28;20036;-75
2022/09/25 02:02:28;;;;;;;3.63;1.00;;;10.80;99.90;;;;;;5116228;28;20379;-75
2022/09/25 02:05:21;;;;;;;4.30;1.35;;;10.70;99.90;;;;;;5100538;28;20044;-75
2022/09/25 02:08:09;;;;;;;1.70;0.90;;;10.70;99.90;;;;;;5090363;28;20126;-75
2022/09/25 02:10:47;;;;;;;2.45;0.90;;;10.70;99.90;;;;;;5099997;28;20048;-75
2022/09/25 02:13:19;;;;;;;1.90;0.98;;;10.70;99.90;;;;;;5100403;28;20036;-75
2022/09/25 02:15:55;;;;;;;1.90;0.65;;;10.70;99.90;;;;;;5100171;28;20048;-75
2022/09/25 02:21:33;;;;;;;2.17;0.73;;;10.70;99.90;;;;;;5100151;28;20051;-75
2022/09/25 02:24:20;;;;;;;2.10;0.90;;;10.60;99.90;;;;;;5115704;28;20063;-75
2022/09/25 02:26:47;;;;;;;2.65;0.77;;;10.60;99.90;;;;;;5099086;28;20039;-75
2022/09/25 02:29:14;;;;;;;1.30;0.60;;;10.60;99.90;;;;;;5115673;28;20044;-75
2022/09/25 02:31:56;;;;;;;0.70;0.50;;;10.60;99.90;;;;;;5099931;28;20097;-75
2022/09/25 02:34:22;;;;;;;1.73;0.70;;;10.50;99.90;;;;;;5100012;28;20093;-75
2022/09/25 02:36:48;;;;;;;2.10;1.02;;;10.50;99.90;;;;;;5098497;28;20044;-75
2022/09/25 02:39:17;;;;;;;2.38;0.70;;;10.50;99.90;;;;;;5099829;28;20039;-75
2022/09/25 02:41:49;;;;;;;1.42;0.50;;;10.50;99.90;;;;;;5099148;28;20043;-75
2022/09/25 02:44:26;;;;;;;1.80;0.38;;;10.40;99.90;;;;;;5099586;28;20047;-75
2022/09/25 02:47:13;;;;;;;1.02;0.50;;;10.40;99.90;;;;;;5115465;28;20043;-75
2022/09/25 02:49:58;;;;;;;1.05;0.60;;;10.50;99.90;;;;;;5099159;28;20396;-74
2022/09/25 02:52:45;;;;;;;2.00;0.43;;;10.40;99.90;;;;;;5099164;28;20050;-75
2022/09/25 02:55:47;;;;;;;0.85;0.40;;;10.40;99.90;;;;;;5099307;28;20071;-75
2022/09/25 02:58:23;;;;;;;1.48;0.50;;;10.40;99.90;;;;;;5098897;28;20060;-75
2022/09/25 03:00:52;;;;;;;0.57;0.40;;;10.30;99.90;;;;;;5099199;28;20042;-75
2022/09/25 03:03:20;;;;;;;3.75;0.70;;;10.30;99.90;;;;;;5098110;28;20105;-75
2022/09/25 03:05:47;;;;;;;1.92;0.50;;;10.30;99.90;;;;;;5098939;28;20044;-75
2022/09/25 03:10:58;;;;;;;1.95;0.40;;;10.30;99.90;;;;;;5099206;28;20078;-75
2022/09/25 03:13:30;;;;;;;1.13;0.50;;;10.20;99.90;;;;;;5099238;28;20072;-75
2022/09/25 03:15:59;;;;;;;2.95;0.20;;;10.20;99.90;;;;;;5099035;28;20047;-75
2022/09/25 03:18:26;;;;;;;1.05;0.20;;;10.30;99.90;;;;;;5098850;28;20050;-75
2022/09/25 03:20:51;;;;;;;0.38;0.25;;;10.30;99.90;;;;;;5098628;28;20470;-75
2022/09/25 03:23:18;;;;;;;1.80;0.35;;;10.30;99.90;;;;;;5098616;28;20067;-75
2022/09/25 03:25:44;;;;;;;0.40;0.30;;;10.20;99.90;;;;;;5098971;28;20123;-75
2022/09/25 03:28:11;;;;;;;2.13;0.70;;;10.20;99.90;;;;;;5098885;28;20392;-74
2022/09/25 03:30:40;;;;;;;8.20;0.65;;;10.10;99.90;;;;;;5097586;28;20048;-75
2022/09/25 03:33:16;;;;;;;1.15;0.40;;;10.20;99.90;;;;;;5098761;28;20100;-75
2022/09/25 03:35:42;;;;;;;2.88;0.55;;;10.20;99.90;;;;;;5098821;28;20082;-74
2022/09/25 03:38:09;;;;;;;3.08;0.80;;;10.20;99.90;;;;;;5098321;28;20404;-75
2022/09/25 03:40:34;;;;;;;1.13;0.57;;;10.20;99.90;;;;;;5096815;28;20052;-75
2022/09/25 03:43:01;;;;;;;1.48;0.50;;;10.30;99.90;;;;;;5097772;28;20032;-75
2022/09/25 03:45:26;;;;;;;1.77;0.50;;;10.30;99.90;;;;;;5097875;28;20436;-75
2022/09/25 03:47:52;;;;;;;0.50;0.40;;;10.30;99.90;;;;;;5098523;28;20032;-75
2022/09/25 03:50:18;;;;;;;0.85;0.40;;;10.30;99.90;;;;;;5114395;28;20370;-74
2022/09/25 03:52:43;;;;;;;1.08;0.40;;;10.40;99.90;;;;;;5097278;28;20032;-75
2022/09/25 03:55:10;;;;;;;2.13;0.40;;;10.40;99.90;;;;;;5098356;28;20083;-74
2022/09/25 03:57:37;;;;;;;2.97;0.75;;;10.40;99.90;;;;;;5098270;28;20040;-75
2022/09/25 04:00:04;;;;;;;1.60;0.47;;;10.40;99.90;;;;;;5098202;28;20032;-75
2022/09/25 04:02:30;;;;;;;2.50;0.73;;;10.50;99.90;;;;;;5097342;28;20443;-75
2022/09/25 04:04:55;;;;;;;3.88;0.60;;;10.50;99.90;;;;;;5113705;28;20119;-75
2022/09/25 04:07:22;;;;;;;1.92;0.70;;;10.60;99.90;;;;;;5098147;28;20115;-75
2022/09/25 04:09:48;;;;;;;2.53;0.70;;;10.60;99.90;;;;;;5097737;28;20032;-75
2022/09/25 04:12:14;;;;;;;2.50;0.77;;;10.60;99.90;;;;;;5098033;28;20036;-75
2022/09/25 04:14:40;;;;;;;2.72;0.82;;;10.60;99.90;;;;;;5113915;28;20054;-75
2022/09/25 04:17:06;;;;;;;2.72;0.68;;;10.70;99.90;;;;;;5097573;28;20093;-75
2022/09/25 04:19:32;;;;;;;1.75;0.60;;;10.60;99.90;;;;;;5097733;28;20036;-76
2022/09/25 04:21:58;;;;;;;2.72;1.02;;;10.50;99.90;;;;;;5097533;28;20040;-76
2022/09/25 04:27:09;;;;;;;4.22;0.90;;;10.40;99.90;;;;;;5097817;28;20181;-75
2022/09/25 04:29:36;;;;;;;6.05;1.20;;;10.40;99.90;;;;;;5097742;28;20111;-75
2022/09/25 04:34:46;;;;;;;2.80;0.90;;;10.40;99.90;;;;;;5097390;28;20094;-75
2022/09/25 04:37:12;;;;;;;4.03;0.80;;;10.40;99.90;;;;;;5096717;28;20085;-75
2022/09/25 04:39:38;;;;;;;4.13;0.90;;;10.40;99.90;;;;;;5096070;28;20051;-75
2022/09/25 04:42:04;;;;;;;1.33;0.70;;;10.30;99.90;;;;;;5096168;28;20048;-75
2022/09/25 04:44:30;;;;;;;2.72;0.80;;;10.30;99.90;;;;;;5095999;28;20185;-75
2022/09/25 04:46:56;;;;;;;3.47;1.20;;;10.30;99.90;;;;;;5097406;28;20072;-75
2022/09/25 04:49:22;;;;;;;3.95;1.27;;;10.30;99.90;;;;;;5097383;28;20094;-74
2022/09/25 04:51:47;;;;;;;1.95;0.90;;;10.30;99.90;;;;;;5097316;28;20451;-75
2022/09/25 04:54:15;;;;;;;3.88;1.20;;;10.30;99.90;;;;;;5096505;28;20059;-75
2022/09/25 04:56:42;;;;;;;5.03;1.00;;;10.30;99.90;;;;;;5096804;28;20429;-75
2022/09/25 04:59:10;;;;;;;3.17;1.20;;;10.40;99.90;;;;;;5097227;28;20036;-75
2022/09/25 05:01:37;;;;;;;3.95;0.90;;;10.40;99.90;;;;;;5097213;28;20051;-75
2022/09/25 05:04:03;;;;;;;3.38;0.90;;;10.30;99.90;;;;;;5095856;28;20085;-75
2022/09/25 05:06:29;;;;;;;1.33;0.80;;;10.30;99.90;;;;;;5097096;28;20044;-75
2022/09/25 05:08:56;;;;;;;2.22;0.88;;;10.20;99.90;;;;;;5096801;28;20123;-75
2022/09/25 05:11:22;;;;;;;1.48;0.80;;;10.20;99.90;;;;;;5096010;28;20055;-75
2022/09/25 05:13:51;;;;;;;2.17;0.80;;;10.10;99.90;;;;;;5097001;28;20032;-75
2022/09/25 05:16:17;;;;;;;2.67;0.70;;;10.10;99.90;;;;;;5096419;28;20161;-75
2022/09/25 05:18:43;;;;;;;11.15;0.95;;;10.10;99.90;;;;;;5096466;28;20070;-75
2022/09/25 05:21:08;;;;;;;1.38;0.30;;;10.10;99.90;;;;;;5112636;28;20525;-75
2022/09/25 05:23:34;;;;;;;1.63;0.40;;;10.20;99.90;;;;;;5096013;28;20092;-75
2022/09/25 05:26:00;;;;;;;0.73;0.35;;;10.10;99.90;;;;;;5096197;28;20078;-75
2022/09/25 05:28:35;;;;;;;1.10;0.30;;;10.10;99.90;;;;;;5096541;28;20112;-75
2022/09/25 05:31:02;;;;;;;3.05;0.50;;;10.10;99.90;;;;;;5097395;28;20047;-75
2022/09/25 05:33:29;;;;;;;1.42;0.65;;;10.10;99.90;;;;;;5096596;28;20317;-75
2022/09/25 05:35:54;;;;;;;1.40;0.63;;;10.00;99.90;;;;;;5103421;28;20040;-75
2022/09/25 05:38:20;;;;;;;3.22;0.70;;;10.00;99.90;;;;;;5116787;28;20039;-75
2022/09/25 05:40:46;;;;;;;0.88;0.60;;;10.00;99.90;;;;;;5115911;28;20062;-75
2022/09/25 05:43:12;;;;;;;1.83;0.60;;;10.00;99.90;;;;;;5116781;28;20035;-75
2022/09/25 05:45:37;;;;;;;2.03;0.40;;;10.00;99.90;;;;;;5116441;28;20047;-75
2022/09/25 05:48:05;;;;;;;0.90;0.50;;;10.10;99.90;;;;;;5116498;28;20032;-75
2022/09/25 05:50:31;;;;;;;2.25;0.60;;;10.10;99.90;;;;;;5111845;28;20032;-75
2022/09/25 05:52:59;;;;;;;1.02;0.45;;;10.00;99.90;;;;;;5116507;28;20100;-74
2022/09/25 05:55:25;;;;;;;1.98;0.40;;;10.00;99.90;;;;;;5116926;28;20043;-75
2022/09/25 05:57:50;;;;;;;0.85;0.30;;;10.00;99.90;;;;;;5116908;28;20059;-74
2022/09/25 06:00:16;;;;;;;0.30;0.25;;;10.00;99.90;;;;;;5115899;28;20043;-75
2022/09/25 06:02:42;;;;;;;1.60;0.40;;;10.00;99.90;;;;;;5115579;28;20039;-75
2022/09/25 06:05:09;;;;;;;0.80;0.30;;;10.00;99.90;;;;;;5116925;28;20044;-74
2022/09/25 06:07:35;;;;;;;0.50;0.30;;;10.00;99.90;;;;;;5116064;28;20425;-75
2022/09/25 06:10:01;;;;;;;0.93;0.20;;;10.00;99.90;;;;;;5117263;28;20141;-78
2022/09/25 06:12:30;;;;;;;0.90;0.20;;;10.00;99.90;;;;;;5114307;28;20442;-75
2022/09/25 06:14:56;;;;;;;0.77;0.40;;;10.00;99.90;;;;;;5115417;28;20048;-75
2022/09/25 06:17:22;;;;;;;0.75;0.40;;;10.10;99.90;;;;;;5118031;28;20436;-75
2022/09/25 06:19:48;;;;;;;1.00;0.47;;;10.20;99.90;;;;;;5100205;28;20032;-75
2022/09/25 06:22:13;;;;;;;2.03;0.50;;;10.20;99.90;;;;;;5099784;28;20063;-75
2022/09/25 06:24:40;;;;;;;0.70;0.25;;;10.30;99.90;;;;;;5099743;28;20047;-75
2022/09/25 06:27:06;;;;;;;1.02;0.43;;;10.30;99.90;;;;;;5132929;27;20055;-75
2022/09/25 06:29:32;;;;;;;1.10;0.50;;;10.30;99.90;;;;;;5107258;28;20035;-75
2022/09/25 06:31:58;;;;;;;1.80;0.75;;;10.40;99.90;;;;;;5099713;28;20043;-76
2022/09/25 06:34:24;;;;;;;3.38;0.60;;;10.50;99.90;;;;;;5112613;28;20391;-75
2022/09/25 06:36:50;;;;;;;1.52;0.65;;;10.50;99.90;;;;;;5099527;28;20307;-75
2022/09/25 06:39:15;;;;;;;1.95;0.55;;;10.60;99.90;;;;;;5100124;28;20066;-75
2022/09/25 06:41:41;;;;;;;3.75;0.68;;;10.70;99.90;;;;;;5099790;28;20040;-75
2022/09/25 06:44:08;;;;;;;1.05;0.50;;;10.70;99.90;;;;;;5100866;28;20333;-75
2022/09/25 06:46:35;;;;;;;3.63;0.70;;;10.80;99.90;;;;;;5120172;28;20054;-75
2022/09/25 06:49:00;;;;;;;3.42;0.98;;;10.90;99.90;;;;;;5118051;28;20440;-75
2022/09/25 06:51:31;;;;;;;1.88;0.80;;;11.00;99.90;;;;;;5119120;28;20070;-71
2022/09/25 06:53:57;;;;;;;5.32;1.38;;;11.10;99.90;;;;;;5118468;28;20047;-72
2022/09/25 06:56:23;;;;;;;1.98;0.90;;;11.20;99.90;;;;;;5098095;28;20040;-72
2022/09/25 06:58:49;;;;;;;4.78;1.52;;;11.30;99.90;;;;;;5119331;28;20035;-73
2022/09/25 07:01:15;;;;;;;4.93;1.80;;;11.40;99.90;;;;;;5112332;28;20047;-73
2022/09/25 07:03:44;;;;;;;5.05;1.52;;;11.60;99.90;;;;;;5119792;28;20036;-74
2022/09/25 07:06:18;;;;;;;3.15;1.23;;;11.70;99.90;;;;;;5119708;28;20042;-74
2022/09/25 07:08:46;;;;;;;6.97;1.70;;;11.80;99.90;;;;;;5119740;28;20090;-74
2022/09/25 07:11:15;;;;;;;3.30;1.52;;;11.80;99.90;;;;;;5119640;28;20096;-74
2022/09/25 07:13:41;;;;;;;6.28;1.80;;;11.90;99.90;;;;;;5119576;28;20040;-74
2022/09/25 07:16:17;;;;;;;7.40;1.70;;;12.00;99.90;;;;;;5118354;27;20036;-75
2022/09/25 07:18:43;;;;;;;4.80;1.40;;;12.00;99.90;;;;;;5118085;28;20035;-74
2022/09/25 07:21:14;;;;;;;3.97;1.27;;;12.00;99.90;;;;;;5119439;28;20050;-73
2022/09/25 07:23:41;;;;;;;7.75;2.30;;;12.20;99.90;;;;;;5113720;28;20098;-74
2022/09/25 07:26:12;;;;;;;5.43;1.83;;;12.40;99.90;;;;;;5111044;28;20118;-75
2022/09/25 07:28:39;;;;;;;7.63;2.33;;;12.50;99.90;;;;;;5120167;28;20370;-73
2022/09/25 07:31:13;;;;;;;8.98;2.60;;;12.60;99.90;;;;;;5119063;28;20397;-71
2022/09/25 07:33:39;;;;;;;13.77;2.35;;;12.60;99.90;;;;;;5117340;28;20027;-70
2022/09/25 07:36:05;;;;;;;5.15;2.13;;;12.60;99.90;;;;;;5118647;28;20052;-70
2022/09/25 07:38:31;;;;;;;10.93;2.25;;;12.60;99.90;;;;;;5116910;28;20042;-70
2022/09/25 07:40:57;;;;;;;9.82;1.92;;;12.60;99.90;;;;;;5118882;28;20408;-70
2022/09/25 07:43:22;;;;;;;7.35;2.17;;;12.60;99.90;;;;;;5118746;28;20073;-90
2022/09/25 07:45:52;;;;;;;9.65;1.73;;;12.70;99.90;;;;;;5118958;28;20056;-69
2022/09/25 07:48:20;;;;;;;7.72;2.00;;;12.60;99.90;;;;;;5117536;28;20039;-71
2022/09/25 07:50:48;;;;;;;6.43;2.00;;;12.90;99.90;;;;;;5118468;28;20444;-71
2022/09/25 07:53:14;;;;;;;11.35;2.35;;;13.10;99.90;;;;;;5118366;28;20051;-72
2022/09/25 07:55:40;;;;;;;10.38;1.92;;;13.40;99.90;;;;;;5118584;28;20035;-72
2022/09/25 07:58:05;;;;;;;4.07;2.10;;;13.60;99.90;;;;;;5118672;28;20035;-71
2022/09/25 08:00:31;;;;;;;4.72;1.90;;;13.60;99.90;;;;;;5118639;28;20357;-71
2022/09/25 08:02:58;;;;;;;6.57;2.00;;;13.70;99.90;;;;;;5118550;28;20046;-71
2022/09/25 08:05:25;;;;;;;10.40;1.83;;;13.70;99.90;;;;;;5118557;28;20112;-71
2022/09/25 08:07:52;;;;;;;7.85;2.40;;;13.80;99.90;;;;;;5118542;27;20031;-71
2022/09/25 08:10:19;;;;;;;8.95;2.20;;;13.90;99.90;;;;;;5118473;28;20039;-71
2022/09/25 08:12:45;;;;;;;6.38;2.20;;;14.00;99.90;;;;;;5117107;28;20043;-72
2022/09/25 08:15:12;;;;;;;10.32;2.15;;;14.20;99.90;;;;;;5118373;28;20046;-72
2022/09/25 08:17:38;;;;;;;8.32;2.20;;;14.30;99.90;;;;;;5117940;28;20042;-74
2022/09/25 08:20:04;;;;;;;5.38;1.40;;;14.40;99.90;;;;;;5151663;27;20043;-71
2022/09/25 08:22:30;;;;;;;5.18;1.50;;;14.40;99.90;;;;;;5117430;28;20039;-72
2022/09/25 08:24:55;;;;;;;5.05;1.50;;;14.70;99.90;;;;;;5116863;28;20089;-72
2022/09/25 08:27:21;;;;;;;8.65;1.52;;;14.90;99.90;;;;;;5118120;28;20050;-72
2022/09/25 08:29:47;;;;;;;18.73;2.13;;;15.10;99.90;;;;;;5118042;28;20043;-72
2022/09/25 08:32:12;;;;;;;12.85;1.52;;;15.10;99.90;;;;;;5118036;28;20112;-72
2022/09/25 08:34:38;;;;;;;7.70;1.10;;;15.20;99.90;;;;;;5117995;27;20039;-71
2022/09/25 08:37:06;;;;;;;7.70;1.00;;;15.30;99.90;;;;;;5117858;28;20071;-70
2022/09/25 08:39:32;;;;;;;4.30;1.02;;;15.40;99.90;;;;;;5116305;28;20446;-72
2022/09/25 08:41:59;;;;;;;9.23;0.80;;;15.60;99.90;;;;;;5117873;28;20039;-71
2022/09/25 08:44:44;;;;;;;8.77;0.95;;;15.80;99.90;;;;;;5117597;28;20060;-72
2022/09/25 08:50:10;;;;;;;5.05;0.70;;;15.90;99.90;;;;;;5117739;28;20058;-69
2022/09/25 08:52:40;;;;;;;5.82;0.50;;;15.70;99.90;;;;;;5117835;28;20039;-71
2022/09/25 08:58:23;;;;;;;11.38;1.52;;;15.10;99.90;;;;;;5099025;28;20428;-74
2022/09/25 09:00:53;;;;;;;11.93;4.10;;;14.60;99.90;;;;;;5104070;28;20051;-72
2022/09/25 09:03:24;;;;;;;11.15;3.00;;;14.30;99.90;;;;;;5095758;28;20032;-74
2022/09/25 09:06:01;;;;;;;7.28;1.95;;;14.10;99.90;;;;;;5097069;28;20076;-75
2022/09/25 09:08:30;;;;;;;4.85;1.30;;;13.90;99.90;;;;;;5096949;28;20329;-76
2022/09/25 09:11:11;;;;;;;6.95;0.90;;;13.80;99.90;;;;;;5095584;28;20044;-76
2022/09/25 09:13:47;;;;;;;6.18;1.15;;;13.70;99.90;;;;;;5099497;28;20031;-75
2022/09/25 09:16:21;;;;;;;;;;;13.80;99.90;;;;;;5097794;28;20363;-74
2022/09/25 09:18:47;;;;;;;3.00;0.80;;;13.70;99.90;;;;;;5096614;28;19919;-74
2022/09/25 09:21:24;;;;;;;8.02;1.27;;;13.70;99.90;;;;;;5129588;27;20042;-74
2022/09/25 09:24:05;;;;;;;6.00;1.02;;;13.90;99.90;;;;;;5114289;28;20416;-74
2022/09/25 09:26:52;;;;;;;4.60;1.38;;;13.90;99.90;;;;;;5116018;28;20090;-75
2022/09/25 09:29:30;;;;;;;9.10;1.25;;;13.90;99.90;;;;;;5117012;28;20332;-74
2022/09/25 09:32:20;;;;;;;4.55;0.80;;;13.90;99.90;;;;;;5110813;28;20047;-75
2022/09/25 09:34:56;;;;;;;7.25;1.40;;;14.10;99.90;;;;;;5096403;28;20409;-76
2022/09/25 09:37:43;;;;;;;4.80;0.93;;;14.30;99.90;;;;;;5096616;28;20097;-76
2022/09/25 09:40:24;;;;;;;5.63;1.10;;;14.40;99.90;;;;;;5096242;28;20417;-74
2022/09/25 09:43:32;;;;;;;4.97;0.77;;;14.50;99.90;;;;;;5116881;28;20306;-75
2022/09/25 09:46:21;;;;;;;4.30;1.27;;;14.80;99.90;;;;;;5082854;28;20143;-74
2022/09/25 09:48:59;;;;;;;4.78;1.27;;;14.90;99.90;;;;;;5114028;28;20420;-73
2022/09/25 09:51:42;;;;;;;8.52;1.15;;;14.80;99.90;;;;;;5111674;28;20077;-78
2022/09/25 09:54:41;;;;;;;9.52;1.35;;;14.70;99.90;;;;;;5117199;28;20096;-77
2022/09/25 09:57:18;;;;;;;7.97;1.10;;;14.60;99.90;;;;;;5117146;28;20043;-73
2022/09/25 10:00:05;;;;;;;7.57;1.30;;;14.60;99.90;;;;;;5120324;28;20443;-75
2022/09/25 10:02:50;;;;;;;5.13;1.08;;;14.70;99.90;;;;;;5102696;28;20429;-75
2022/09/25 10:05:25;;;;;;;4.45;1.05;;;14.90;99.90;;;;;;5121991;28;20047;-74
2022/09/25 10:07:52;;;;;;;4.47;0.80;;;15.00;99.90;;;;;;5120928;28;20157;-73
2022/09/25 10:10:18;;;;;;;7.85;1.35;;;15.10;99.90;;;;;;5120515;28;20039;-73
2022/09/25 10:12:49;;;;;;;4.30;1.50;;;15.40;99.90;;;;;;5119479;28;20079;-73
2022/09/25 10:15:39;;;;;;;9.43;1.10;;;15.50;99.90;;;;;;5120761;28;20050;-72
2022/09/25 10:18:06;;;;;;;5.25;0.90;;;15.80;99.90;;;;;;5120738;28;20039;-72
2022/09/25 10:20:52;;;;;;;4.43;0.90;;;15.90;99.90;;;;;;5120375;28;20497;-72
2022/09/25 10:23:26;;;;;;;2.63;0.90;;;16.10;99.90;;;;;;5120256;28;20047;-72
2022/09/25 10:25:52;;;;;;;8.85;1.40;;;16.30;99.90;;;;;;5120550;28;20039;-72
2022/09/25 10:28:34;;;;;;;2.85;0.77;;;16.20;99.90;;;;;;5120235;28;20032;-72
2022/09/25 10:31:02;;;;;;;3.90;0.90;;;16.20;99.90;;;;;;5119464;28;20044;-72
2022/09/25 10:33:31;;;;;;;3.38;0.70;;;16.30;99.90;;;;;;5120431;27;20363;-72
2022/09/25 10:35:57;;;;;;;5.35;1.15;;;16.30;99.90;;;;;;5118926;28;20333;-72
2022/09/25 10:38:47;;;;;;;5.32;1.20;;;16.40;99.90;;;;;;5120302;28;20114;-72
2022/09/25 10:41:21;;;;;;;6.13;0.80;;;16.50;99.90;;;;;;5120327;28;20027;-72
2022/09/25 10:43:52;;;;;;;2.20;0.65;;;16.60;99.90;;;;;;5120257;28;20028;-73
2022/09/25 10:50:09;;;;;;;5.68;1.02;;;16.60;99.90;;;;;;5119700;28;20063;-72
2022/09/25 10:52:10;;;;;;;7.05;1.33;;;16.90;99.90;;;;;;5120014;28;20051;-72
2022/09/25 10:54:36;;;;;;;4.32;0.80;;;17.00;99.90;;;;;;5118579;28;20124;-72
2022/09/25 10:57:16;;;;;;;6.15;1.00;;;16.90;99.90;;;;;;5119590;28;20451;-75
2022/09/25 10:59:50;;;;;;;9.55;0.82;;;16.90;99.90;;;;;;5119654;28;20054;-72
2022/09/25 11:02:45;;;;;;;5.15;0.80;;;17.00;99.90;;;;;;5119390;28;20477;-72
2022/09/25 11:05:20;;;;;;;8.57;1.20;;;17.30;99.90;;;;;;5117550;28;20070;-72
2022/09/25 11:07:53;;;;;;;6.28;0.90;;;17.60;99.90;;;;;;5119832;28;20044;-72
2022/09/25 11:10:21;;;;;;;4.75;0.80;;;17.70;99.90;;;;;;5119738;28;20046;-72
2022/09/25 11:12:48;;;;;;;4.75;0.73;;;18.00;99.90;;;;;;5119628;28;20050;-72
2022/09/25 11:15:20;;;;;;;3.55;0.77;;;18.10;99.90;;;;;;5119622;27;20043;-73
2022/09/25 11:17:51;;;;;;;3.63;0.63;;;18.00;99.90;;;;;;5119534;27;20050;-72
2022/09/25 11:20:28;;;;;;;4.00;0.63;;;18.00;99.90;;;;;;5119521;27;20036;-72
2022/09/25 11:23:03;;;;;;;2.75;0.40;;;18.20;99.90;;;;;;5119152;28;20107;-72
2022/09/25 11:25:29;;;;;;;4.33;0.90;;;18.20;99.90;;;;;;5119496;28;20036;-72
2022/09/25 11:28:03;;;;;;;2.22;0.30;;;17.70;99.90;;;;;;5119325;28;20449;-72
2022/09/25 11:30:42;;;;;;;1.95;0.40;;;17.40;99.90;;;;;;5119336;28;20111;-72
2022/09/25 11:33:23;;;;;;;0.85;0.30;;;17.20;99.90;;;;;;5119320;28;20035;-72
2022/09/25 11:35:59;;;;;;;1.92;0.30;;;17.10;99.90;;;;;;5119184;28;20054;-72
2022/09/25 11:41:39;;;;;;;1.20;0.20;;;17.90;99.90;;;;;;5095470;28;20432;-72
2022/09/25 11:44:30;;;;;;;3.75;0.50;;;18.30;99.90;;;;;;5118901;28;20043;-73
2022/09/25 11:47:04;;;;;;;1.65;0.43;;;18.80;99.90;;;;;;5118957;28;20169;-73
2022/09/25 11:49:36;;;;;;;3.25;0.20;;;19.10;99.90;;;;;;5119006;28;20051;-73
2022/09/25 11:52:32;;;;;;;4.38;0.43;;;18.90;99.90;;;;;;5118631;28;20040;-72
2022/09/25 11:55:13;;;;;;;1.08;0.30;;;18.80;99.90;;;;;;5118869;28;20129;-72
2022/09/25 11:58:17;;;;;;;2.47;0.40;;;18.80;99.90;;;;;;5118694;28;20040;-73
2022/09/25 12:00:54;;;;;;;3.50;0.55;;;18.80;99.90;;;;;;5118479;28;20043;-72
2022/09/25 12:03:36;;;;;;;3.35;0.43;;;18.90;99.90;;;;;;5118818;28;20041;-72
2022/09/25 12:06:10;;;;;;;2.45;0.32;;;19.30;99.90;;;;;;5118595;28;20118;-72
2022/09/25 12:08:56;;;;;;;2.05;0.50;;;19.20;99.90;;;;;;5118540;28;20089;-72
2022/09/25 12:11:21;;;;;;;1.85;0.30;;;19.40;99.90;;;;;;5118538;28;20035;-73
2022/09/25 12:14:07;;;;;;;1.30;0.20;;;19.60;99.90;;;;;;5117473;28;20114;-72
2022/09/25 12:16:38;;;;;;;1.77;0.35;;;19.20;99.50;;;;;;5118263;28;20048;-73
2022/09/25 12:19:04;;;;;;;2.97;0.40;;;19.00;99.90;;;;;;5118020;28;20451;-72
2022/09/25 12:22:14;;;;;;;3.50;0.38;;;19.00;99.90;;;;;;5118249;28;20036;-72
2022/09/25 12:24:58;;;;;;;1.95;0.40;;;19.60;99.70;;;;;;5105908;28;20047;-73
2022/09/25 12:27:40;;;;;;;4.03;0.38;;;19.70;99.90;;;;;;5118215;28;20043;-72
2022/09/25 12:30:10;;;;;;;2.08;0.30;;;19.50;99.10;;;;;;5118162;28;20051;-72
2022/09/25 12:32:57;;;;;;;2.50;0.35;;;19.20;99.80;;;;;;5117813;28;20525;-72
2022/09/25 12:35:25;;;;;;;2.83;0.40;;;19.10;99.50;;;;;;5117691;28;20135;-72
2022/09/25 12:37:57;;;;;;;3.40;0.45;;;18.80;99.50;;;;;;5117587;28;20383;-72
2022/09/25 12:40:39;;;;;;;3.03;0.30;;;18.50;99.40;;;;;;5117981;28;20054;-72
2022/09/25 12:43:24;;;;;;;7.07;0.65;;;18.30;99.90;;;;;;5117973;28;20089;-72
2022/09/25 12:45:57;;;;;;;4.30;0.50;;;17.90;99.90;;;;;;5117018;28;20052;-72
2022/09/25 12:48:48;;;;;;;4.85;0.65;;;17.80;99.90;;;;;;5116751;28;20043;-72
2022/09/25 12:51:39;;;;;;;4.50;0.50;;;17.80;99.90;;;;;;5117067;28;20035;-72
2022/09/25 12:54:25;;;;;;;4.35;0.50;;;17.80;99.90;;;;;;5115571;28;20054;-72
2022/09/25 12:56:54;;;;;;;3.75;0.50;;;18.40;99.90;;;;;;5105697;28;20048;-72
2022/09/25 12:59:47;;;;;;;4.85;0.20;;;19.00;99.70;;;;;;5116788;28;20034;-73
2022/09/25 13:02:20;;;;;;;3.38;0.50;;;19.70;99.90;;;;;;5116171;28;20126;-73
2022/09/25 13:05:04;;;;;;;4.03;0.60;;;20.40;99.90;;;;;;5116769;28;20035;-72
2022/09/25 13:07:48;;;;;;;4.65;0.40;;;20.70;99.30;;;;;;5116761;28;20039;-72
2022/09/25 13:10:43;;;;;;;2.63;0.35;;;21.20;99.50;;;;;;5116752;28;20036;-72
2022/09/25 13:13:18;;;;;;;3.30;0.43;;;21.60;98.30;;;;;;5116765;28;20035;-73
2022/09/25 13:15:51;;;;;;;2.08;0.30;;;21.90;97.70;;;;;;5115392;28;20122;-73
2022/09/25 13:18:22;;;;;;;0.63;0.10;;;22.00;97.50;;;;;;5116653;28;20048;-72
2022/09/25 13:20:53;;;;;;;1.70;0.20;;;22.20;97.30;;;;;;5116276;28;20337;-73
2022/09/25 13:23:36;;;;;;;2.47;0.30;;;22.10;97.40;;;;;;5115961;28;20425;-73
2022/09/25 13:26:15;;;;;;;2.65;0.40;;;22.00;97.50;;;;;;5115333;28;20383;-73
2022/09/25 13:29:13;;;;;;;2.90;0.20;;;21.40;96.50;;;;;;5116465;28;20075;-72
2022/09/25 13:31:41;;;;;;;2.78;0.32;;;20.70;97.70;;;;;;5116440;28;20096;-73
2022/09/25 13:34:16;;;;;;;1.83;0.30;;;20.60;97.60;;;;;;5116119;28;20459;-72
2022/09/25 13:36:53;;;;;;;2.22;0.32;;;20.50;96.80;;;;;;5116342;28;20123;-72
2022/09/25 13:42:20;;;;;;;1.67;0.28;;;19.70;97.40;;;;;;5116289;28;20051;-72